createdAt,value
2022-08-09T00:02:18.816Z,89.07
2022-08-09T00:05:03.280Z,89.39
2022-08-09T00:07:45.310Z,90.31
2022-08-09T00:10:21.101Z,89.55
2022-08-09T00:12:54.644Z,89.16
2022-08-09T00:15:59.568Z,88.96
2022-08-09T00:18:26.163Z,88.46
2022-08-09T00:21:08.551Z,88.97
2022-08-09T00:23:56.056Z,89.03
2022-08-09T00:26:32.354Z,89.07
2022-08-09T00:29:12.562Z,90.14
2022-08-09T00:32:00.999Z,90.88
2022-08-09T00:34:33.448Z,90.69
2022-08-09T00:37:21.022Z,91.14
2022-08-09T00:40:12.430Z,91.36
2022-08-09T00:44:26.088Z,91.52
2022-08-09T00:45:35.547Z,90.75
2022-08-09T00:48:07.386Z,90.42
2022-08-09T00:50:40.457Z,92.06
2022-08-09T00:53:24.055Z,92.00
2022-08-09T00:56:05.073Z,92.33
2022-08-09T00:58:38.308Z,92.98
2022-08-09T01:01:32.256Z,92.89
2022-08-09T01:04:19.920Z,92.00
2022-08-09T01:06:59.741Z,91.44
2022-08-09T01:09:54.650Z,90.86
2022-08-09T01:12:35.641Z,90.75
2022-08-09T01:15:17.004Z,91.31
2022-08-09T01:18:30.581Z,91.31
2022-08-09T01:21:44.648Z,90.80
2022-08-09T01:24:34.654Z,90.39
2022-08-09T01:27:14.320Z,90.53
2022-08-09T01:29:55.479Z,90.82
2022-08-09T01:32:34.759Z,91.42
2022-08-09T01:35:28.682Z,91.69
2022-08-09T01:38:18.889Z,91.30
2022-08-09T01:41:13.760Z,92.40
2022-08-09T01:43:52.525Z,92.57
2022-08-09T01:46:42.518Z,92.17
2022-08-09T01:49:18.967Z,92.00
2022-08-09T01:52:10.627Z,91.89
2022-08-09T01:54:48.838Z,92.13
2022-08-09T01:58:10.734Z,92.26
2022-08-09T02:00:50.454Z,92.73
2022-08-09T02:03:21.977Z,92.81
2022-08-09T02:06:09.172Z,92.93
2022-08-09T02:08:58.647Z,93.42
2022-08-09T02:11:42.944Z,93.36
2022-08-09T02:14:25.501Z,93.49
2022-08-09T02:17:59.424Z,93.50
2022-08-09T02:20:09.878Z,94.32
2022-08-09T02:23:17.597Z,95.33
2022-08-09T02:26:00.497Z,97.00
2022-08-09T02:28:54.117Z,97.56
2022-08-09T02:31:36.372Z,97.27
2022-08-09T02:34:40.904Z,97.06
2022-08-09T02:37:15.099Z,96.50
2022-08-09T02:40:01.680Z,95.80
2022-08-09T02:42:37.330Z,96.13
2022-08-09T02:45:15.181Z,96.09
2022-08-09T02:47:57.771Z,95.67
2022-08-09T02:50:38.538Z,95.78
2022-08-09T02:53:25.787Z,95.66
2022-08-09T02:55:59.947Z,95.60
2022-08-09T02:58:37.505Z,95.54
2022-08-09T03:01:10.802Z,95.97
2022-08-09T03:04:18.204Z,95.88
2022-08-09T03:06:36.784Z,95.66
2022-08-09T03:09:09.834Z,95.25
2022-08-09T03:12:09.885Z,94.32
2022-08-09T03:14:32.254Z,93.72
2022-08-09T03:17:26.401Z,93.75
2022-08-09T03:20:03.321Z,94.32
2022-08-09T03:22:57.018Z,94.80
2022-08-09T03:26:13.585Z,95.92
2022-08-09T03:29:01.565Z,97.16
2022-08-09T03:31:42.433Z,97.43
2022-08-09T03:34:27.976Z,96.73
2022-08-09T03:37:10.676Z,98.38
2022-08-09T03:39:55.516Z,99.98
2022-08-09T03:42:26.272Z,100.00
2022-08-09T03:44:57.173Z,100.00
2022-08-09T03:47:30.279Z,100.00
2022-08-09T03:50:12.505Z,100.00
2022-08-09T03:53:10.719Z,100.00
2022-08-09T03:56:00.627Z,100.00
2022-08-09T03:58:33.853Z,100.00
2022-08-09T04:01:01.529Z,100.00
2022-08-09T04:03:45.841Z,100.00
2022-08-09T04:06:13.672Z,100.00
2022-08-09T04:08:42.417Z,100.00
2022-08-09T04:11:14.143Z,100.00
2022-08-09T04:14:37.370Z,100.00
2022-08-09T04:16:29.602Z,100.00
2022-08-09T04:19:02.076Z,100.00
2022-08-09T04:21:31.103Z,100.00
2022-08-09T04:24:09.759Z,100.00
2022-08-09T04:26:38.672Z,100.00
2022-08-09T04:29:15.439Z,100.00
2022-08-09T04:31:47.070Z,100.00
2022-08-09T04:34:18.882Z,100.00
2022-08-09T04:36:59.031Z,100.00
2022-08-09T04:39:30.937Z,100.00
2022-08-09T04:41:59.712Z,100.00
2022-08-09T04:44:28.613Z,100.00
2022-08-09T04:46:59.910Z,100.00
2022-08-09T04:49:53.212Z,100.00
2022-08-09T04:52:26.892Z,100.00
2022-08-09T04:55:02.391Z,100.00
2022-08-09T04:57:58.969Z,100.00
2022-08-09T05:00:31.693Z,100.00
2022-08-09T05:03:12.756Z,100.00
2022-08-09T05:06:06.863Z,100.00
2022-08-09T05:08:35.221Z,100.00
2022-08-09T05:11:17.315Z,99.95
2022-08-09T05:13:44.452Z,99.62
2022-08-09T05:16:15.564Z,99.78
2022-08-09T05:18:57.344Z,99.82
2022-08-09T05:21:47.103Z,99.78
2022-08-09T05:24:31.641Z,98.26
2022-08-09T05:27:07.635Z,97.18
2022-08-09T05:29:40.793Z,96.76
2022-08-09T05:32:09.627Z,97.22
2022-08-09T05:34:45.650Z,97.27
2022-08-09T05:37:14.125Z,96.66
2022-08-09T05:39:46.259Z,95.69
2022-08-09T05:42:39.458Z,93.21
2022-08-09T05:45:07.561Z,92.61
2022-08-09T05:47:35.587Z,91.49
2022-08-09T05:50:30.348Z,89.31
2022-08-09T05:53:21.771Z,87.14
2022-08-09T05:56:06.542Z,88.59
2022-08-09T05:58:35.813Z,86.34
2022-08-09T06:01:04.110Z,84.55
2022-08-09T06:03:44.259Z,83.65
2022-08-09T06:06:23.781Z,83.54
2022-08-09T06:08:52.717Z,83.05
2022-08-09T06:11:20.161Z,82.30
2022-08-09T06:14:09.194Z,81.66
2022-08-09T06:16:37.155Z,81.47
2022-08-09T06:19:06.089Z,80.66
2022-08-09T06:21:35.554Z,80.01
2022-08-09T06:24:18.493Z,79.08
2022-08-09T06:26:47.860Z,77.97
2022-08-09T06:29:15.813Z,77.71
2022-08-09T06:32:08.956Z,76.79
2022-08-09T06:34:30.846Z,75.69
2022-08-09T06:37:05.889Z,75.58
2022-08-09T06:39:49.300Z,74.90
2022-08-09T06:42:30.618Z,73.30
2022-08-09T06:46:05.018Z,73.11
2022-08-09T06:48:00.844Z,71.95
2022-08-09T06:50:36.741Z,71.53
2022-08-09T06:53:05.264Z,71.54
2022-08-09T06:55:33.422Z,70.78
2022-08-09T06:58:04.395Z,71.24
2022-08-09T07:00:50.317Z,72.17
2022-08-09T07:03:27.882Z,70.66
2022-08-09T07:06:03.610Z,70.12
2022-08-09T07:08:37.283Z,69.09
2022-08-09T07:11:12.800Z,67.97
2022-08-09T07:14:04.490Z,65.74
2022-08-09T07:16:42.254Z,65.60
2022-08-09T07:19:22.812Z,65.34
2022-08-09T07:22:07.836Z,64.54
2022-08-09T07:24:49.967Z,65.51
2022-08-09T07:27:34.451Z,65.76
2022-08-09T07:30:13.700Z,64.87
2022-08-09T07:32:41.951Z,64.93
2022-08-09T07:35:12.940Z,64.73
2022-08-09T07:37:45.972Z,63.41
2022-08-09T07:40:54.150Z,63.21
2022-08-09T07:43:22.234Z,63.70
2022-08-09T07:46:03.122Z,62.47
2022-08-09T07:48:39.273Z,64.25
2022-08-09T07:52:03.715Z,62.24
2022-08-09T07:54:14.169Z,62.70
2022-08-09T07:56:45.058Z,61.19
2022-08-09T08:00:08.712Z,59.12
2022-08-09T08:02:59.826Z,60.86
2022-08-09T08:05:53.719Z,58.42
2022-08-09T08:09:00.513Z,57.54
2022-08-09T08:12:09.369Z,58.74
2022-08-09T08:14:24.071Z,57.38
2022-08-09T08:17:09.030Z,56.99
2022-08-09T08:19:41.278Z,58.11
2022-08-09T08:22:12.464Z,55.74
2022-08-09T08:24:44.807Z,55.98
2022-08-09T08:27:18.661Z,56.16
2022-08-09T08:29:49.979Z,56.20
2022-08-09T08:32:29.367Z,53.85
2022-08-09T08:35:02.017Z,54.09
2022-08-09T08:37:41.051Z,53.68
2022-08-09T08:40:30.306Z,52.86
2022-08-09T08:43:01.830Z,54.02
2022-08-09T08:45:50.750Z,50.56
2022-08-09T08:48:29.181Z,52.36
2022-08-09T08:51:07.128Z,49.14
2022-08-09T08:53:37.036Z,50.05
2022-08-09T08:56:06.094Z,48.84
2022-08-09T08:58:36.154Z,49.32
2022-08-09T09:01:08.945Z,49.08
2022-08-09T09:03:50.441Z,48.56
2022-08-09T09:06:21.041Z,48.26
2022-08-09T09:08:52.422Z,46.37
2022-08-09T09:11:23.110Z,46.93
2022-08-09T09:13:57.146Z,45.68
2022-08-09T09:16:33.865Z,45.67
2022-08-09T09:22:26.631Z,45.21
2022-08-09T09:26:02.255Z,42.04
2022-08-09T09:29:03.122Z,45.55
2022-08-09T09:32:01.815Z,46.00
2022-08-09T09:34:18.395Z,44.02
2022-08-09T09:36:53.773Z,44.58
2022-08-09T09:39:42.860Z,42.42
2022-08-09T09:42:23.303Z,41.92
2022-08-09T09:45:06.827Z,42.80
2022-08-09T09:48:04.946Z,42.67
2022-08-09T09:50:52.605Z,41.87
2022-08-09T09:53:57.208Z,40.51
2022-08-09T09:56:31.106Z,39.69
2022-08-09T09:59:00.131Z,39.01
2022-08-09T10:01:36.935Z,39.30
2022-08-09T10:04:30.411Z,39.25
2022-08-09T10:07:10.134Z,38.93
2022-08-09T10:09:54.762Z,39.34
2022-08-09T10:12:43.677Z,36.17
2022-08-09T10:15:50.992Z,37.27
2022-08-09T10:18:13.048Z,37.15
2022-08-09T10:20:45.143Z,36.91
2022-08-09T10:23:23.770Z,37.20
2022-08-09T10:26:06.766Z,36.58
2022-08-09T10:28:37.581Z,36.56
2022-08-09T10:34:10.737Z,34.80
2022-08-09T10:36:57.153Z,32.94
2022-08-09T10:39:28.541Z,33.04
2022-08-09T10:42:03.724Z,33.83
2022-08-09T10:44:31.790Z,33.60
2022-08-09T10:48:19.184Z,35.18
2022-08-09T10:51:03.473Z,33.95
2022-08-09T10:54:12.458Z,34.44
2022-08-09T10:56:42.805Z,32.58
2022-08-09T10:59:31.760Z,33.03
2022-08-09T11:03:14.513Z,32.56
2022-08-09T11:05:25.367Z,33.03
2022-08-09T11:07:59.326Z,33.67
2022-08-09T11:10:54.447Z,33.51
2022-08-09T11:13:50.445Z,34.01
2022-08-09T11:16:33.506Z,33.69
2022-08-09T11:19:10.109Z,34.31
2022-08-09T11:22:05.026Z,34.36
2022-08-09T11:25:09.010Z,35.68
2022-08-09T11:28:27.591Z,36.23
2022-08-09T11:30:54.628Z,36.96
2022-08-09T11:33:42.450Z,37.00
2022-08-09T11:36:35.362Z,37.31
2022-08-09T11:39:07.151Z,37.31
2022-08-09T11:41:40.282Z,37.61
2022-08-09T11:44:08.651Z,38.10
2022-08-09T11:46:52.758Z,39.37
2022-08-09T11:50:53.893Z,39.79
2022-08-09T11:53:58.592Z,39.75
2022-08-09T11:56:14.818Z,40.66
2022-08-09T11:58:56.784Z,39.97
2022-08-09T12:02:16.953Z,40.04
2022-08-09T12:04:38.019Z,40.49
2022-08-09T12:07:07.938Z,40.47
2022-08-09T12:09:38.076Z,40.79
2022-08-09T12:12:12.072Z,41.17
2022-08-09T12:15:07.552Z,40.85
2022-08-09T12:17:52.053Z,41.06
2022-08-09T12:20:26.283Z,40.99
2022-08-09T12:22:59.402Z,40.72
2022-08-09T12:25:36.181Z,40.79
2022-08-09T12:29:11.255Z,40.08
2022-08-09T12:31:58.257Z,40.21
2022-08-09T12:34:17.261Z,40.35
2022-08-09T12:36:58.966Z,40.19
2022-08-09T12:40:01.351Z,39.51
2022-08-09T12:42:45.383Z,40.09
2022-08-09T12:45:34.381Z,38.22
2022-08-09T12:48:00.776Z,38.75
2022-08-09T12:50:28.500Z,38.22
2022-08-09T12:53:07.851Z,38.97
2022-08-09T12:56:12.894Z,37.01
2022-08-09T12:58:29.185Z,37.13
2022-08-09T13:00:58.730Z,36.59
2022-08-09T13:03:53.289Z,36.72
2022-08-09T13:06:34.369Z,36.79
2022-08-09T13:09:18.378Z,35.36
2022-08-09T13:11:49.070Z,35.78
2022-08-09T13:14:42.308Z,36.36
2022-08-09T13:17:43.701Z,35.84
2022-08-09T13:20:16.106Z,34.13
2022-08-09T13:23:00.385Z,33.91
2022-08-09T13:25:54.574Z,32.79
2022-08-09T13:28:33.869Z,31.59
2022-08-09T13:32:14.186Z,32.39
2022-08-09T13:33:58.639Z,31.37
2022-08-09T13:36:42.626Z,31.43
2022-08-09T13:39:31.073Z,30.92
2022-08-09T13:42:14.164Z,29.93
2022-08-09T13:44:48.731Z,30.92
2022-08-09T13:47:31.309Z,30.75
2022-08-09T13:50:18.263Z,29.89
2022-08-09T13:52:56.041Z,30.59
2022-08-09T13:55:23.513Z,31.57
2022-08-09T13:57:56.099Z,31.39
2022-08-09T14:00:27.326Z,29.86
2022-08-09T14:03:04.297Z,29.31
2022-08-09T14:05:58.643Z,29.79
2022-08-09T14:08:29.749Z,29.55
2022-08-09T14:11:00.180Z,28.68
2022-08-09T14:14:22.538Z,29.60
2022-08-09T14:16:28.116Z,29.95
2022-08-09T14:19:03.522Z,30.43
2022-08-09T14:21:31.941Z,31.52
2022-08-09T14:24:18.284Z,32.25
2022-08-09T14:27:02.961Z,32.57
2022-08-09T14:30:35.227Z,33.98
2022-08-09T14:32:41.815Z,34.82
2022-08-09T14:35:17.594Z,36.38
2022-08-09T14:38:01.902Z,36.92
2022-08-09T14:41:00.509Z,36.63
2022-08-09T14:43:47.634Z,36.76
2022-08-09T14:46:55.000Z,37.11
2022-08-09T14:49:11.182Z,36.09
2022-08-09T14:51:42.249Z,36.97
2022-08-09T14:54:10.015Z,36.54
2022-08-09T14:56:58.054Z,37.27
2022-08-09T14:59:29.158Z,36.84
2022-08-09T15:02:01.801Z,37.40
2022-08-09T15:04:29.678Z,37.88
2022-08-09T15:07:13.053Z,38.16
2022-08-09T15:10:07.361Z,38.85
2022-08-09T15:12:36.707Z,38.99
2022-08-09T15:15:04.358Z,38.99
2022-08-09T15:17:42.149Z,38.83
2022-08-09T15:21:55.401Z,39.11
2022-08-09T15:24:00.955Z,39.90
2022-08-09T15:25:55.832Z,39.30
2022-08-09T15:28:27.868Z,38.50
2022-08-09T15:31:10.397Z,38.39
2022-08-09T15:34:32.056Z,38.22
2022-08-09T15:36:32.379Z,38.47
2022-08-09T15:39:05.408Z,38.84
2022-08-09T15:41:40.139Z,38.33
2022-08-09T15:44:13.616Z,38.91
2022-08-09T15:46:46.182Z,38.96
2022-08-09T15:49:23.740Z,39.25
2022-08-09T15:52:03.907Z,39.96
2022-08-09T15:54:44.916Z,40.31
2022-08-09T15:57:34.625Z,40.42
2022-08-09T16:03:18.899Z,40.85
2022-08-09T16:06:01.532Z,40.76
2022-08-09T16:08:31.751Z,41.20
2022-08-09T16:11:08.661Z,41.42
2022-08-09T16:14:03.929Z,41.38
2022-08-09T16:16:26.077Z,41.55
2022-08-09T16:18:55.402Z,41.34
2022-08-09T16:21:25.595Z,40.66
2022-08-09T16:24:02.354Z,41.47
2022-08-09T16:26:34.456Z,42.06
2022-08-09T16:29:14.849Z,41.01
2022-08-09T16:32:19.375Z,40.48
2022-08-09T16:34:55.743Z,40.43
2022-08-09T16:37:54.651Z,40.46
2022-08-09T16:40:29.398Z,40.77
2022-08-09T16:43:05.111Z,40.66
2022-08-09T16:45:33.132Z,40.52
2022-08-09T16:48:43.170Z,42.23
2022-08-09T16:50:59.183Z,42.20
2022-08-09T16:53:32.356Z,41.79
2022-08-09T16:56:10.008Z,41.82
2022-08-09T16:58:50.439Z,41.43
2022-08-09T17:01:24.669Z,42.24
2022-08-09T17:04:00.300Z,42.03
2022-08-09T17:06:31.691Z,42.66
2022-08-09T17:09:43.603Z,42.64
2022-08-09T17:11:52.565Z,43.17
2022-08-09T17:14:29.005Z,43.04
2022-08-09T17:17:26.333Z,42.56
2022-08-09T17:20:30.311Z,43.44
2022-08-09T17:22:49.603Z,43.77
2022-08-09T17:25:18.723Z,44.39
2022-08-09T17:27:49.535Z,45.20
2022-08-09T17:30:30.724Z,45.63
2022-08-09T17:33:04.779Z,45.55
2022-08-09T17:35:40.900Z,45.48
2022-08-09T17:38:13.819Z,46.28
2022-08-09T17:40:57.752Z,46.18
2022-08-09T17:43:33.486Z,45.81
2022-08-09T17:46:07.052Z,45.79
2022-08-09T17:48:51.811Z,45.60
2022-08-09T17:51:22.175Z,45.33
2022-08-09T17:53:53.636Z,45.71
2022-08-09T17:56:37.463Z,46.04
2022-08-09T17:59:11.847Z,45.63
2022-08-09T18:02:07.692Z,45.78
2022-08-09T18:04:34.390Z,45.91
2022-08-09T18:07:07.684Z,46.20
2022-08-09T18:09:41.292Z,47.37
2022-08-09T18:12:30.021Z,47.98
2022-08-09T18:15:07.295Z,48.49
2022-08-09T18:18:03.605Z,49.28
2022-08-09T18:20:56.292Z,49.56
2022-08-09T18:24:11.736Z,49.63
2022-08-09T18:26:08.723Z,50.23
2022-08-09T18:30:38.672Z,50.53
2022-08-09T18:31:51.443Z,51.53
2022-08-09T18:34:14.538Z,51.93
2022-08-09T18:36:49.416Z,52.75
2022-08-09T18:39:18.771Z,52.76
2022-08-09T18:41:52.536Z,53.29
2022-08-09T18:44:25.737Z,53.38
2022-08-09T18:47:05.156Z,54.01
2022-08-09T18:49:43.829Z,54.96
2022-08-09T18:52:18.776Z,55.00
2022-08-09T18:54:53.544Z,55.15
2022-08-09T18:57:22.959Z,55.76
2022-08-09T18:59:55.512Z,55.77
2022-08-09T19:02:32.224Z,56.93
2022-08-09T19:05:20.436Z,60.01
2022-08-09T19:08:04.340Z,62.76
2022-08-09T19:10:39.752Z,64.25
2022-08-09T19:13:22.503Z,65.52
2022-08-09T19:15:58.940Z,65.43
2022-08-09T19:18:34.143Z,66.21
2022-08-09T19:21:10.622Z,66.89
2022-08-09T19:24:33.234Z,67.33
2022-08-09T19:26:37.992Z,67.23
2022-08-09T19:29:18.100Z,67.98
2022-08-09T19:31:49.468Z,68.59
2022-08-09T19:34:22.632Z,68.65
2022-08-09T19:36:58.858Z,69.49
2022-08-09T19:39:43.553Z,71.02
2022-08-09T19:42:19.565Z,72.65
2022-08-09T19:44:54.008Z,74.24
2022-08-09T19:47:27.049Z,74.31
2022-08-09T19:50:10.288Z,73.35
2022-08-09T19:52:52.137Z,74.00
2022-08-09T19:55:30.776Z,74.45
2022-08-09T19:58:15.887Z,76.30
2022-08-09T20:01:04.409Z,75.96
2022-08-09T20:04:16.943Z,74.65
2022-08-09T20:06:22.609Z,73.43
2022-08-09T20:08:57.015Z,73.28
2022-08-09T20:11:48.730Z,73.03
2022-08-09T20:14:30.323Z,73.97
2022-08-09T20:16:57.934Z,75.06
2022-08-09T20:19:49.394Z,75.19
2022-08-09T20:22:14.147Z,75.43
2022-08-09T20:25:52.187Z,75.66
2022-08-09T20:28:34.045Z,76.23
2022-08-09T20:31:25.387Z,77.11
2022-08-09T20:34:02.008Z,77.59
2022-08-09T20:36:35.225Z,78.29
2022-08-09T20:39:29.111Z,77.39
2022-08-09T20:42:04.387Z,77.33
2022-08-09T20:45:00.424Z,77.78
2022-08-09T20:47:48.226Z,79.35
2022-08-09T20:50:47.730Z,79.82
2022-08-09T20:53:35.627Z,80.83
2022-08-09T20:56:02.572Z,79.00
2022-08-09T20:58:34.193Z,79.65
2022-08-09T21:01:51.110Z,82.65
2022-08-09T21:05:54.279Z,81.12
2022-08-09T21:07:13.988Z,81.58
2022-08-09T21:09:55.295Z,81.61
2022-08-09T21:15:24.911Z,82.89
2022-08-09T21:18:24.061Z,83.55
2022-08-09T21:21:00.550Z,85.20
2022-08-09T21:23:51.630Z,86.04
2022-08-09T21:26:36.331Z,86.26
2022-08-09T21:29:12.016Z,87.85
2022-08-09T21:31:51.059Z,89.85
2022-08-09T21:34:28.665Z,89.07
2022-08-09T21:36:57.308Z,88.90
2022-08-09T21:39:42.206Z,87.29
2022-08-09T21:42:28.475Z,86.55
2022-08-09T21:45:06.834Z,85.61
2022-08-09T21:47:37.565Z,85.78
2022-08-09T21:50:06.246Z,85.26
2022-08-09T21:52:35.478Z,85.91
2022-08-09T21:55:05.800Z,86.07
2022-08-09T21:57:59.706Z,85.84
2022-08-09T22:00:32.385Z,85.47
2022-08-09T22:03:04.743Z,85.76
2022-08-09T22:05:42.297Z,85.68
2022-08-09T22:08:15.257Z,86.21
2022-08-09T22:11:00.462Z,86.04
2022-08-09T22:13:54.051Z,86.24
2022-08-09T22:16:22.182Z,86.52
2022-08-09T22:18:54.583Z,86.76
2022-08-09T22:21:45.037Z,86.78
2022-08-09T22:24:24.930Z,86.36
2022-08-09T22:26:57.105Z,87.34
2022-08-09T22:29:46.586Z,88.05
2022-08-09T22:32:30.118Z,88.82
2022-08-09T22:36:01.823Z,92.84
2022-08-09T22:38:07.056Z,94.14
2022-08-09T22:40:49.049Z,95.49
2022-08-09T22:44:01.823Z,95.70
2022-08-09T22:48:12.787Z,93.43
2022-08-09T22:49:13.368Z,90.83
2022-08-09T22:51:43.497Z,89.57
2022-08-09T22:54:21.147Z,89.67
2022-08-09T22:56:58.734Z,89.11
2022-08-09T22:59:56.774Z,89.72
2022-08-09T23:02:21.132Z,90.37
2022-08-09T23:05:02.152Z,90.12
2022-08-09T23:08:27.771Z,89.40
2022-08-09T23:10:43.712Z,89.03
2022-08-09T23:13:36.804Z,88.50
2022-08-09T23:16:04.082Z,90.70
2022-08-09T23:18:33.303Z,92.13
2022-08-09T23:21:07.559Z,91.85
2022-08-09T23:23:35.219Z,92.13
2022-08-09T23:26:03.054Z,92.33
2022-08-09T23:28:32.694Z,91.65
2022-08-09T23:31:02.596Z,91.43
2022-08-09T23:33:29.782Z,91.96
2022-08-09T23:36:07.421Z,93.94
2022-08-09T23:38:48.571Z,95.46
2022-08-09T23:41:27.597Z,97.58
2022-08-09T23:44:00.670Z,100.00
2022-08-09T23:46:30.040Z,100.00
2022-08-09T23:48:58.193Z,99.48
2022-08-09T23:51:25.746Z,99.57
2022-08-09T23:54:03.187Z,98.39
2022-08-09T23:56:52.118Z,98.48
2022-08-09T23:59:21.289Z,96.42
